createdAt,value
2018-08-03T00:02:16.431Z,19.17
2018-08-03T00:04:44.594Z,18.65
2018-08-03T00:07:12.818Z,19.05
2018-08-03T00:09:40.951Z,17.70
2018-08-03T00:12:09.113Z,19.32
2018-08-03T00:14:37.217Z,18.23
2018-08-03T00:17:05.576Z,17.80
2018-08-03T00:19:33.866Z,19.87
2018-08-03T00:22:02.005Z,18.20
2018-08-03T00:24:30.115Z,18.92
2018-08-03T00:26:58.310Z,18.82
2018-08-03T00:29:26.422Z,19.40
2018-08-03T00:31:54.666Z,20.12
2018-08-03T00:34:22.809Z,18.82
2018-08-03T00:36:50.915Z,18.82
2018-08-03T00:39:19.042Z,23.25
2018-08-03T00:41:47.200Z,21.30
2018-08-03T00:44:15.328Z,19.92
2018-08-03T00:46:43.434Z,19.52
2018-08-03T00:49:11.609Z,20.43
2018-08-03T00:51:39.826Z,19.52
2018-08-03T00:54:08.252Z,20.88
2018-08-03T00:56:36.424Z,20.62
2018-08-03T00:59:04.684Z,19.77
2018-08-03T01:01:32.818Z,21.33
2018-08-03T01:04:01.168Z,19.80
2018-08-03T01:06:29.398Z,20.55
2018-08-03T01:08:57.642Z,19.65
2018-08-03T01:11:25.780Z,19.73
2018-08-03T01:13:53.966Z,20.40
2018-08-03T01:16:22.214Z,19.30
2018-08-03T01:18:50.660Z,21.10
2018-08-03T01:21:18.801Z,21.10
2018-08-03T01:23:47.003Z,19.77
2018-08-03T01:26:15.142Z,19.77
2018-08-03T01:28:43.273Z,21.23
2018-08-03T01:31:11.382Z,21.15
2018-08-03T01:33:39.539Z,21.25
2018-08-03T01:36:07.686Z,23.52
2018-08-03T01:38:35.874Z,22.98
2018-08-03T01:41:03.995Z,25.97
2018-08-03T01:43:32.211Z,23.35
2018-08-03T01:46:00.472Z,22.60
2018-08-03T01:48:29.139Z,24.47
2018-08-03T01:50:57.210Z,21.23
2018-08-03T01:53:25.583Z,19.50
2018-08-03T01:58:44.546Z,19.70
2018-08-03T02:01:12.819Z,20.82
2018-08-03T02:03:40.963Z,20.72
2018-08-03T02:06:09.163Z,20.52
2018-08-03T02:08:37.348Z,20.00
2018-08-03T02:11:05.579Z,23.40
2018-08-03T02:13:33.679Z,21.50
2018-08-03T02:16:01.775Z,21.25
2018-08-03T02:18:30.008Z,21.10
2018-08-03T02:20:58.114Z,18.98
2018-08-03T02:23:26.203Z,19.52
2018-08-03T02:25:54.648Z,19.73
2018-08-03T02:28:22.742Z,20.57
2018-08-03T02:30:50.867Z,21.07
2018-08-03T02:33:19.080Z,19.98
2018-08-03T02:35:47.171Z,21.37
2018-08-03T02:40:49.902Z,20.27
2018-08-03T02:43:18.016Z,22.02
2018-08-03T02:45:46.121Z,19.73
2018-08-03T02:48:14.362Z,21.37
2018-08-03T02:50:42.546Z,21.12
2018-08-03T02:53:10.690Z,21.35
2018-08-03T02:55:38.862Z,21.42
2018-08-03T02:58:07.014Z,23.40
2018-08-03T03:00:35.290Z,21.40
2018-08-03T03:03:03.688Z,20.10
2018-08-03T03:05:31.865Z,23.05
2018-08-03T03:07:59.986Z,21.07
2018-08-03T03:10:28.114Z,21.05
2018-08-03T03:12:56.562Z,19.35
2018-08-03T03:15:24.667Z,20.48
2018-08-03T03:17:52.803Z,20.68
2018-08-03T03:20:20.991Z,21.27
2018-08-03T03:22:49.186Z,21.55
2018-08-03T03:25:17.330Z,23.40
2018-08-03T03:27:45.645Z,22.42
2018-08-03T03:30:13.831Z,20.20
2018-08-03T03:32:42.090Z,22.27
2018-08-03T03:35:10.181Z,21.17
2018-08-03T03:37:38.323Z,20.90
2018-08-03T03:40:06.686Z,23.27
2018-08-03T03:42:34.959Z,22.32
2018-08-03T03:45:03.148Z,20.70
2018-08-03T03:47:31.495Z,20.37
2018-08-03T03:49:59.603Z,20.50
2018-08-03T03:52:27.897Z,20.82
2018-08-03T03:54:56.034Z,22.90
2018-08-03T03:57:24.211Z,21.95
2018-08-03T03:59:52.328Z,24.92
2018-08-03T04:02:20.438Z,21.73
2018-08-03T04:04:48.593Z,22.48
2018-08-03T04:07:17.071Z,22.13
2018-08-03T04:09:45.223Z,20.82
2018-08-03T04:12:13.428Z,22.67
2018-08-03T04:14:41.494Z,23.70
2018-08-03T04:17:09.620Z,21.95
2018-08-03T04:19:37.819Z,24.72
2018-08-03T04:22:05.934Z,23.55
2018-08-03T04:24:34.201Z,22.02
2018-08-03T04:27:02.505Z,22.27
2018-08-03T04:29:31.091Z,23.40
2018-08-03T04:31:59.414Z,23.10
2018-08-03T04:34:27.558Z,20.70
2018-08-03T04:36:55.682Z,23.60
2018-08-03T04:39:23.896Z,21.48
2018-08-03T04:41:52.031Z,21.70
2018-08-03T04:44:20.370Z,23.42
2018-08-03T04:46:48.524Z,77.55
2018-08-03T04:49:16.651Z,48.00
2018-08-03T04:51:44.763Z,31.05
2018-08-03T04:54:12.963Z,27.90
2018-08-03T04:56:41.138Z,25.12
2018-08-03T04:59:09.273Z,23.70
2018-08-03T05:01:37.391Z,28.40
2018-08-03T05:04:05.692Z,25.40
2018-08-03T05:06:34.012Z,25.12
2018-08-03T05:09:02.250Z,25.45
2018-08-03T05:11:30.368Z,21.85
2018-08-03T05:13:58.592Z,24.07
2018-08-03T05:16:26.811Z,22.60
2018-08-03T05:18:55.188Z,24.12
2018-08-03T05:21:23.305Z,22.32
2018-08-03T05:23:51.439Z,24.55
2018-08-03T05:26:19.707Z,24.50
2018-08-03T05:28:48.075Z,24.18
2018-08-03T05:31:19.223Z,25.20
2018-08-03T05:33:47.457Z,24.98
2018-08-03T05:36:15.656Z,24.00
2018-08-03T05:38:43.807Z,23.40
2018-08-03T05:41:12.006Z,24.77
2018-08-03T05:43:40.137Z,24.90
2018-08-03T05:46:08.558Z,25.48
2018-08-03T05:48:36.752Z,26.25
2018-08-03T05:51:05.010Z,26.27
2018-08-03T05:53:33.250Z,28.80
2018-08-03T05:56:01.413Z,27.90
2018-08-03T05:58:29.628Z,27.42
2018-08-03T06:00:58.614Z,26.17
2018-08-03T06:03:26.734Z,31.25
2018-08-03T06:05:55.599Z,27.07
2018-08-03T06:08:23.702Z,27.32
2018-08-03T06:10:51.908Z,26.95
2018-08-03T06:13:20.065Z,26.20
2018-08-03T06:15:48.287Z,24.80
2018-08-03T06:18:16.544Z,25.12
2018-08-03T06:20:44.877Z,23.80
2018-08-03T06:23:12.972Z,25.97
2018-08-03T06:25:41.997Z,23.45
2018-08-03T06:28:10.139Z,24.72
2018-08-03T06:30:38.375Z,25.27
2018-08-03T06:33:06.864Z,26.35
2018-08-03T06:35:35.189Z,24.47
2018-08-03T06:38:03.326Z,25.08
2018-08-03T06:40:31.579Z,27.90
2018-08-03T06:42:59.927Z,27.13
2018-08-03T06:45:28.155Z,33.98
2018-08-03T06:47:56.327Z,28.83
2018-08-03T06:50:24.475Z,27.13
2018-08-03T06:52:53.085Z,30.15
2018-08-03T06:55:21.234Z,24.15
2018-08-03T06:57:50.424Z,24.63
2018-08-03T07:00:19.448Z,24.05
2018-08-03T07:02:48.007Z,23.67
2018-08-03T07:05:16.559Z,24.02
2018-08-03T07:07:44.769Z,27.05
2018-08-03T07:10:12.928Z,22.90
2018-08-03T07:12:41.958Z,22.95
2018-08-03T07:15:10.671Z,22.65
2018-08-03T07:17:39.039Z,22.30
2018-08-03T07:20:07.342Z,23.12
2018-08-03T07:22:35.546Z,22.50
2018-08-03T07:25:03.899Z,22.90
2018-08-03T07:27:32.241Z,21.10
2018-08-03T07:30:00.551Z,21.70
2018-08-03T07:32:28.687Z,22.25
2018-08-03T07:34:57.099Z,22.93
2018-08-03T07:37:26.026Z,21.12
2018-08-03T07:39:54.471Z,20.40
2018-08-03T07:42:22.595Z,19.65
2018-08-03T07:44:51.113Z,20.40
2018-08-03T07:47:19.301Z,20.65
2018-08-03T07:49:47.743Z,20.60
2018-08-03T07:52:15.883Z,20.37
2018-08-03T07:54:44.226Z,21.60
2018-08-03T07:57:12.646Z,21.12
2018-08-03T07:59:41.006Z,20.20
2018-08-03T08:02:09.268Z,20.45
2018-08-03T08:04:37.607Z,20.35
2018-08-03T08:07:05.942Z,20.82
2018-08-03T08:09:34.313Z,19.27
2018-08-03T08:12:02.665Z,18.95
2018-08-03T08:14:31.207Z,18.02
2018-08-03T08:16:59.525Z,19.77
2018-08-03T08:19:27.851Z,19.77
2018-08-03T08:21:56.057Z,19.75
2018-08-03T08:24:25.495Z,18.87
2018-08-03T08:26:54.050Z,20.45
2018-08-03T08:29:22.471Z,19.75
2018-08-03T08:31:50.667Z,18.82
2018-08-03T08:34:19.041Z,18.75
2018-08-03T08:36:48.794Z,19.30
2018-08-03T08:39:17.047Z,19.98
2018-08-03T08:41:45.532Z,17.98
2018-08-03T08:44:14.295Z,19.45
2018-08-03T08:46:42.903Z,20.08
2018-08-03T08:49:11.513Z,19.23
2018-08-03T08:51:39.703Z,18.80
2018-08-03T08:54:07.968Z,18.90
2018-08-03T08:56:36.238Z,18.45
2018-08-03T08:59:04.543Z,18.48
2018-08-03T09:01:32.667Z,20.60
2018-08-03T09:04:01.121Z,18.25
2018-08-03T09:06:29.501Z,21.62
2018-08-03T09:08:58.123Z,19.07
2018-08-03T09:11:26.316Z,18.90
2018-08-03T09:13:55.636Z,19.48
2018-08-03T09:16:24.109Z,19.55
2018-08-03T09:18:52.587Z,18.48
2018-08-03T09:21:21.003Z,18.37
2018-08-03T09:23:49.218Z,19.07
2018-08-03T09:26:17.343Z,20.05
2018-08-03T09:28:45.738Z,19.05
2018-08-03T09:31:13.950Z,19.27
2018-08-03T09:33:42.083Z,17.92
2018-08-03T09:36:10.295Z,18.57
2018-08-03T09:38:38.435Z,18.07
2018-08-03T09:41:06.687Z,19.07
2018-08-03T09:43:34.854Z,18.60
2018-08-03T09:46:03.125Z,19.05
2018-08-03T09:48:31.388Z,19.45
2018-08-03T09:50:59.541Z,18.42
2018-08-03T09:53:27.682Z,18.17
2018-08-03T09:55:55.884Z,18.20
2018-08-03T09:58:26.479Z,19.57
2018-08-03T10:00:57.290Z,17.60
2018-08-03T10:03:25.750Z,17.87
2018-08-03T10:05:54.347Z,18.85
2018-08-03T10:08:22.612Z,19.17
2018-08-03T10:10:50.839Z,17.60
2018-08-03T10:13:19.003Z,18.48
2018-08-03T10:15:47.295Z,18.85
2018-08-03T10:18:15.402Z,18.35
2018-08-03T10:20:43.575Z,17.65
2018-08-03T10:23:12.143Z,18.25
2018-08-03T10:25:40.278Z,20.32
2018-08-03T10:28:08.590Z,19.42
2018-08-03T10:30:36.846Z,19.60
2018-08-03T10:33:05.158Z,19.90
2018-08-03T10:35:33.490Z,19.12
2018-08-03T10:38:01.679Z,18.50
2018-08-03T10:40:29.779Z,18.12
2018-08-03T10:42:58.696Z,17.45
2018-08-03T10:45:26.907Z,19.40
2018-08-03T10:47:55.051Z,20.02
2018-08-03T10:50:23.166Z,18.70
2018-08-03T10:52:51.485Z,18.07
2018-08-03T10:55:19.592Z,18.55
2018-08-03T10:57:47.816Z,19.55
2018-08-03T11:00:28.945Z,17.87
2018-08-03T11:02:57.535Z,18.10
2018-08-03T11:05:26.015Z,18.52
2018-08-03T11:07:54.266Z,18.95
2018-08-03T11:10:22.401Z,18.95
2018-08-03T11:12:51.351Z,17.70
2018-08-03T11:15:20.018Z,17.42
2018-08-03T11:17:49.124Z,17.57
2018-08-03T11:20:17.495Z,17.10
2018-08-03T11:22:46.073Z,18.00
2018-08-03T11:25:14.247Z,19.23
2018-08-03T11:27:42.392Z,19.75
2018-08-03T11:30:11.282Z,18.12
2018-08-03T11:32:39.613Z,21.37
2018-08-03T11:35:08.911Z,18.60
2018-08-03T11:37:37.255Z,17.90
2018-08-03T11:40:06.047Z,19.27
2018-08-03T11:42:34.328Z,17.95
2018-08-03T11:45:02.445Z,21.97
2018-08-03T11:47:30.820Z,20.88
2018-08-03T11:50:00.043Z,21.00
2018-08-03T11:52:28.189Z,21.85
2018-08-03T11:54:56.466Z,19.40
2018-08-03T11:57:24.630Z,19.55
2018-08-03T11:59:53.886Z,17.32
2018-08-03T12:02:22.087Z,16.60
2018-08-03T12:04:50.442Z,19.30
2018-08-03T12:07:18.622Z,16.52
2018-08-03T12:09:47.037Z,17.25
2018-08-03T12:12:15.173Z,15.40
2018-08-03T12:14:43.607Z,15.98
2018-08-03T12:17:12.097Z,16.00
2018-08-03T12:19:40.485Z,16.30
2018-08-03T12:22:08.817Z,15.70
2018-08-03T12:24:37.178Z,15.83
2018-08-03T12:27:05.354Z,16.40
2018-08-03T12:29:33.991Z,15.03
2018-08-03T12:32:02.256Z,15.72
2018-08-03T12:34:30.436Z,16.50
2018-08-03T12:36:58.885Z,16.30
2018-08-03T12:39:28.275Z,15.30
2018-08-03T12:41:56.404Z,14.98
2018-08-03T12:44:24.579Z,16.67
2018-08-03T12:46:52.951Z,15.35
2018-08-03T12:49:21.710Z,15.95
2018-08-03T12:51:51.596Z,14.35
2018-08-03T12:54:19.981Z,15.35
2018-08-03T12:56:48.105Z,15.43
2018-08-03T12:59:16.349Z,14.13
2018-08-03T13:01:44.556Z,17.57
2018-08-03T13:04:14.169Z,19.73
2018-08-03T13:06:42.375Z,15.53
2018-08-03T13:09:10.560Z,16.80
2018-08-03T13:11:38.781Z,18.07
2018-08-03T13:14:07.048Z,15.50
2018-08-03T13:16:35.849Z,16.30
2018-08-03T13:19:03.999Z,15.32
2018-08-03T13:21:36.589Z,14.80
2018-08-03T13:24:04.915Z,15.25
2018-08-03T13:26:33.042Z,15.23
2018-08-03T13:29:01.288Z,14.43
2018-08-03T13:31:30.287Z,13.40
2018-08-03T13:33:58.590Z,13.43
2018-08-03T13:36:28.091Z,13.95
2018-08-03T13:38:56.655Z,17.20
2018-08-03T13:41:24.740Z,13.62
2018-08-03T13:43:53.050Z,13.13
2018-08-03T13:46:21.167Z,14.70
2018-08-03T13:48:50.103Z,13.45
2018-08-03T13:51:19.175Z,14.23
2018-08-03T13:53:48.182Z,14.30
2018-08-03T13:56:17.455Z,13.40
2018-08-03T13:58:46.491Z,15.53
2018-08-03T14:01:26.215Z,14.47
2018-08-03T14:03:54.365Z,14.75
2018-08-03T14:06:22.482Z,18.17
2018-08-03T14:08:50.706Z,15.30
2018-08-03T14:11:19.642Z,14.53
2018-08-03T14:13:48.419Z,15.68
2018-08-03T14:16:16.755Z,14.83
2018-08-03T14:18:46.461Z,13.68
2018-08-03T14:21:14.606Z,15.98
2018-08-03T14:23:42.882Z,13.58
2018-08-03T14:26:11.028Z,14.63
2018-08-03T14:28:39.271Z,14.47
2018-08-03T14:31:07.455Z,14.40
2018-08-03T14:33:35.657Z,13.68
2018-08-03T14:36:03.816Z,13.90
2018-08-03T14:38:31.971Z,13.50
2018-08-03T14:41:00.187Z,13.25
2018-08-03T14:43:28.371Z,13.78
2018-08-03T14:45:56.534Z,14.70
2018-08-03T14:48:24.643Z,13.48
2018-08-03T14:50:52.794Z,14.25
2018-08-03T14:53:21.276Z,15.35
2018-08-03T14:55:49.598Z,13.93
2018-08-03T14:58:18.151Z,13.95
2018-08-03T15:00:46.321Z,16.02
2018-08-03T15:03:14.910Z,13.95
2018-08-03T15:05:43.039Z,13.58
2018-08-03T15:08:11.375Z,14.23
2018-08-03T15:10:39.729Z,13.93
2018-08-03T15:13:08.010Z,16.55
2018-08-03T15:15:36.275Z,14.13
2018-08-03T15:18:04.448Z,14.30
2018-08-03T15:20:32.567Z,13.95
2018-08-03T15:23:01.079Z,16.25
2018-08-03T15:25:29.496Z,15.25
2018-08-03T15:27:57.833Z,13.55
2018-08-03T15:30:26.906Z,14.50
2018-08-03T15:32:55.057Z,17.00
2018-08-03T15:35:23.315Z,16.00
2018-08-03T15:37:51.752Z,32.25
2018-08-03T15:40:19.898Z,15.72
2018-08-03T15:42:48.204Z,15.20
2018-08-03T15:45:16.328Z,16.30
2018-08-03T15:47:44.554Z,15.23
2018-08-03T15:50:12.681Z,14.53
2018-08-03T15:52:41.394Z,14.15
2018-08-03T15:55:09.747Z,14.18
2018-08-03T15:57:37.994Z,13.43
2018-08-03T16:00:07.799Z,14.40
2018-08-03T16:02:35.976Z,15.55
2018-08-03T16:05:04.182Z,16.40
2018-08-03T16:07:32.319Z,17.73
2018-08-03T16:10:00.471Z,24.20
2018-08-03T16:12:28.631Z,16.30
2018-08-03T16:14:57.393Z,17.82
2018-08-03T16:17:25.651Z,20.20
2018-08-03T16:19:53.924Z,21.27
2018-08-03T16:22:22.028Z,20.40
2018-08-03T16:24:50.326Z,21.17
2018-08-03T16:27:18.591Z,18.77
2018-08-03T16:29:46.818Z,23.55
2018-08-03T16:32:15.307Z,18.15
2018-08-03T16:34:43.520Z,20.80
2018-08-03T16:37:11.668Z,21.87
2018-08-03T16:39:39.817Z,24.52
2018-08-03T16:42:08.158Z,23.90
2018-08-03T16:44:36.397Z,25.77
2018-08-03T16:47:04.502Z,23.20
2018-08-03T16:49:32.720Z,18.40
2018-08-03T16:52:00.861Z,16.48
2018-08-03T16:54:29.003Z,21.52
2018-08-03T16:56:57.248Z,16.55
2018-08-03T16:59:25.530Z,17.45
2018-08-03T17:01:53.651Z,16.82
2018-08-03T17:04:22.008Z,31.90
2018-08-03T17:06:50.212Z,20.60
2018-08-03T17:09:18.416Z,26.25
2018-08-03T17:11:46.558Z,28.62
2018-08-03T17:14:14.668Z,27.37
2018-08-03T17:16:42.775Z,24.98
2018-08-03T17:19:10.950Z,27.45
2018-08-03T17:21:39.151Z,30.88
2018-08-03T17:24:07.423Z,33.00
2018-08-03T17:26:35.686Z,26.68
2018-08-03T17:29:03.812Z,26.55
2018-08-03T17:31:31.942Z,24.30
2018-08-03T17:34:00.140Z,23.15
2018-08-03T17:36:28.291Z,25.45
2018-08-03T17:38:56.556Z,22.13
2018-08-03T17:41:24.695Z,24.67
2018-08-03T17:43:52.877Z,26.60
2018-08-03T17:46:21.230Z,19.52
2018-08-03T17:48:49.378Z,18.67
2018-08-03T17:51:17.545Z,18.55
2018-08-03T17:53:45.678Z,20.15
2018-08-03T17:56:13.873Z,19.60
2018-08-03T17:58:42.020Z,18.50
2018-08-03T18:01:10.547Z,16.80
2018-08-03T18:03:38.670Z,18.42
2018-08-03T18:06:06.887Z,16.17
2018-08-03T18:08:35.064Z,16.05
2018-08-03T18:11:03.359Z,18.48
2018-08-03T18:13:31.559Z,19.17
2018-08-03T18:15:59.774Z,16.00
2018-08-03T18:18:28.098Z,17.52
2018-08-03T18:20:56.312Z,17.10
2018-08-03T18:23:24.496Z,21.15
2018-08-03T18:25:52.610Z,20.52
2018-08-03T18:28:20.827Z,15.13
2018-08-03T18:30:49.378Z,18.12
2018-08-03T18:33:17.585Z,15.15
2018-08-03T18:35:45.767Z,14.83
2018-08-03T18:38:14.132Z,15.63
2018-08-03T18:40:42.274Z,15.65
2018-08-03T18:43:10.455Z,16.25
2018-08-03T18:45:38.592Z,15.55
2018-08-03T18:48:06.734Z,14.15
2018-08-03T18:50:34.901Z,15.08
2018-08-03T18:53:03.040Z,14.85
2018-08-03T18:55:31.420Z,15.03
2018-08-03T18:57:59.866Z,15.00
2018-08-03T19:00:28.007Z,13.62
2018-08-03T19:02:56.186Z,12.90
2018-08-03T19:05:24.539Z,12.85
2018-08-03T19:07:52.655Z,14.55
2018-08-03T19:10:20.837Z,19.60
2018-08-03T19:12:49.141Z,14.10
2018-08-03T19:15:18.301Z,13.15
2018-08-03T19:17:46.428Z,13.93
2018-08-03T19:20:26.059Z,15.98
2018-08-03T19:22:54.377Z,19.45
2018-08-03T19:25:22.564Z,15.88
2018-08-03T19:27:50.894Z,17.48
2018-08-03T19:30:19.469Z,16.30
2018-08-03T19:32:47.551Z,13.70
2018-08-03T19:35:16.085Z,15.55
2018-08-03T19:37:44.493Z,17.45
2018-08-03T19:40:12.607Z,15.98
2018-08-03T19:42:40.763Z,17.70
2018-08-03T19:45:08.907Z,16.50
2018-08-03T19:47:36.999Z,16.02
2018-08-03T19:50:05.131Z,17.87
2018-08-03T19:52:33.271Z,15.83
2018-08-03T19:55:01.411Z,16.77
2018-08-03T19:57:29.550Z,15.10
2018-08-03T19:59:57.930Z,14.58
2018-08-03T20:02:26.067Z,14.40
2018-08-03T20:04:54.163Z,16.40
2018-08-03T20:07:22.602Z,14.47
2018-08-03T20:09:50.868Z,17.98
2018-08-03T20:12:19.351Z,15.03
2018-08-03T20:14:47.497Z,14.15
2018-08-03T20:17:15.730Z,15.98
2018-08-03T20:19:43.991Z,17.52
2018-08-03T20:22:14.178Z,14.28
2018-08-03T20:24:42.354Z,14.87
2018-08-03T20:27:10.760Z,14.73
2018-08-03T20:29:39.083Z,13.80
2018-08-03T20:32:07.456Z,17.37
2018-08-03T20:34:35.576Z,18.73
2018-08-03T20:37:03.752Z,18.32
2018-08-03T20:39:32.597Z,18.15
2018-08-03T20:42:01.100Z,21.85
2018-08-03T20:44:29.796Z,14.33
2018-08-03T20:46:57.926Z,19.75
2018-08-03T20:52:35.427Z,16.55
2018-08-03T20:55:04.269Z,18.35
2018-08-03T20:57:32.404Z,16.12
2018-08-03T21:00:00.644Z,17.98
2018-08-03T21:02:28.876Z,25.75
2018-08-03T21:04:57.163Z,18.60
2018-08-03T21:07:25.310Z,20.92
2018-08-03T21:09:53.851Z,22.30
2018-08-03T21:12:22.099Z,25.17
2018-08-03T21:14:50.387Z,20.55
2018-08-03T21:17:19.207Z,20.62
2018-08-03T21:19:47.333Z,21.33
2018-08-03T21:22:15.803Z,21.10
2018-08-03T21:24:44.558Z,17.07
2018-08-03T21:27:13.045Z,16.42
2018-08-03T21:29:41.245Z,16.35
2018-08-03T21:32:09.836Z,16.32
2018-08-03T21:34:37.970Z,21.50
2018-08-03T21:37:06.131Z,18.80
2018-08-03T21:39:34.414Z,19.57
2018-08-03T21:42:02.561Z,17.42
2018-08-03T21:44:30.854Z,18.82
2018-08-03T21:46:58.972Z,17.85
2018-08-03T21:49:27.174Z,17.20
2018-08-03T21:51:56.034Z,17.50
2018-08-03T21:54:24.423Z,17.35
2018-08-03T21:56:52.540Z,16.85
2018-08-03T21:59:21.050Z,16.32
2018-08-03T22:01:49.311Z,17.70
2018-08-03T22:04:17.555Z,16.32
2018-08-03T22:06:45.722Z,18.02
2018-08-03T22:09:13.895Z,15.55
2018-08-03T22:11:42.003Z,16.07
2018-08-03T22:14:10.204Z,15.75
2018-08-03T22:16:39.222Z,17.45
2018-08-03T22:19:07.338Z,14.70
2018-08-03T22:21:35.579Z,15.05
2018-08-03T22:24:03.999Z,14.43
2018-08-03T22:26:32.382Z,14.15
2018-08-03T22:29:00.524Z,15.35
2018-08-03T22:31:28.685Z,14.47
2018-08-03T22:33:56.866Z,14.10
2018-08-03T22:36:25.228Z,14.65
2018-08-03T22:38:53.450Z,14.43
2018-08-03T22:41:21.646Z,14.53
2018-08-03T22:43:50.099Z,13.58
2018-08-03T22:46:18.217Z,14.63
2018-08-03T22:48:46.422Z,14.53
2018-08-03T22:51:14.647Z,19.07
2018-08-03T22:53:43.071Z,15.53
2018-08-03T22:56:11.234Z,13.60
2018-08-03T22:58:39.401Z,14.18
2018-08-03T23:01:07.929Z,15.00
2018-08-03T23:03:36.163Z,15.75
2018-08-03T23:06:04.338Z,14.25
2018-08-03T23:08:32.490Z,14.85
2018-08-03T23:11:01.139Z,15.53
2018-08-03T23:13:29.319Z,15.70
2018-08-03T23:15:57.588Z,14.20
2018-08-03T23:18:25.807Z,16.48
2018-08-03T23:20:54.187Z,14.95
2018-08-03T23:23:22.515Z,17.87
2018-08-03T23:25:50.821Z,15.85
2018-08-03T23:28:19.300Z,15.25
2018-08-03T23:30:47.709Z,15.18
2018-08-03T23:33:15.936Z,15.80
2018-08-03T23:35:44.444Z,16.80
2018-08-03T23:38:12.715Z,15.45
2018-08-03T23:40:40.900Z,15.53
2018-08-03T23:43:09.258Z,15.75
2018-08-03T23:45:37.407Z,15.78
2018-08-03T23:48:05.630Z,16.15
2018-08-03T23:50:33.779Z,16.45
2018-08-03T23:53:02.153Z,15.08
2018-08-03T23:55:30.313Z,15.78
2018-08-03T23:57:58.552Z,15.88
